createdAt,value
2018-09-30T16:02:47.188Z,87.40
2018-09-30T16:05:15.366Z,82.60
2018-09-30T16:07:43.540Z,80.90
2018-09-30T16:10:11.698Z,79.00
2018-09-30T16:12:39.901Z,79.30
2018-09-30T16:15:08.057Z,80.50
2018-09-30T16:17:36.232Z,79.40
2018-09-30T16:20:04.552Z,81.20
2018-09-30T16:22:32.736Z,81.70
2018-09-30T16:25:00.933Z,83.10
2018-09-30T16:27:29.138Z,83.10
2018-09-30T16:29:57.292Z,83.50
2018-09-30T16:32:25.497Z,85.20
2018-09-30T16:34:53.678Z,85.80
2018-09-30T16:37:22.705Z,85.10
2018-09-30T16:39:50.873Z,83.90
2018-09-30T16:42:19.078Z,85.70
2018-09-30T16:44:47.227Z,87.40
2018-09-30T16:47:15.387Z,90.00
2018-09-30T16:49:43.885Z,91.10
2018-09-30T16:52:12.021Z,92.50
2018-09-30T16:54:40.394Z,96.00
2018-09-30T16:57:08.562Z,97.60
2018-09-30T16:59:36.754Z,99.30
2018-09-30T17:02:04.960Z,99.70
2018-09-30T17:04:33.101Z,99.90
2018-09-30T17:07:01.246Z,99.90
2018-09-30T17:09:29.409Z,99.90
2018-09-30T17:11:57.565Z,99.90
2018-09-30T17:14:25.729Z,99.90
2018-09-30T17:16:53.956Z,99.90
2018-09-30T17:19:22.144Z,99.90
2018-09-30T17:21:50.308Z,99.90
2018-09-30T17:24:18.446Z,99.90
2018-09-30T17:26:46.624Z,99.90
2018-09-30T17:29:14.788Z,99.90
2018-09-30T17:31:42.929Z,99.90
2018-09-30T17:34:11.096Z,99.90
2018-09-30T17:36:39.252Z,99.90
2018-09-30T17:39:08.619Z,99.90
2018-09-30T17:41:36.781Z,99.90
2018-09-30T17:44:05.056Z,99.90
2018-09-30T17:46:33.157Z,99.90
2018-09-30T17:49:01.316Z,99.90
2018-09-30T17:51:29.485Z,99.90
2018-09-30T17:53:57.655Z,99.90
2018-09-30T17:56:25.856Z,99.90
2018-09-30T17:58:54.044Z,99.90
2018-09-30T18:01:22.216Z,99.90
2018-09-30T18:03:50.428Z,99.90
2018-09-30T18:06:18.579Z,99.90
2018-09-30T18:08:46.736Z,99.90
2018-09-30T18:11:14.900Z,99.90
2018-09-30T18:13:43.049Z,99.90
2018-09-30T18:16:11.222Z,99.90
2018-09-30T18:18:39.405Z,99.90
2018-09-30T18:21:07.583Z,99.90
2018-09-30T18:23:35.823Z,99.90
2018-09-30T18:26:04.073Z,99.90
2018-09-30T18:28:32.329Z,99.90
2018-09-30T18:31:00.495Z,99.90
2018-09-30T18:33:28.680Z,99.90
2018-09-30T18:35:56.874Z,99.90
2018-09-30T18:38:25.115Z,99.90
2018-09-30T18:40:53.337Z,99.90
2018-09-30T18:43:21.514Z,99.90
2018-09-30T18:45:49.700Z,99.90
2018-09-30T18:48:17.898Z,99.90
2018-09-30T18:50:46.068Z,99.90
2018-09-30T18:53:14.255Z,99.90
2018-09-30T18:55:42.435Z,99.90
2018-09-30T18:58:10.614Z,99.90
2018-09-30T19:00:38.781Z,99.90
2018-09-30T19:03:06.945Z,99.90
2018-09-30T19:05:35.154Z,99.90
2018-09-30T19:08:03.390Z,99.90
2018-09-30T19:10:31.633Z,99.90
2018-09-30T19:12:59.824Z,99.90
2018-09-30T19:15:28.007Z,99.90
2018-09-30T19:17:56.173Z,99.90
2018-09-30T19:20:24.373Z,99.90
2018-09-30T19:22:52.880Z,99.90
2018-09-30T19:25:21.058Z,99.90
2018-09-30T19:27:49.222Z,99.90
2018-09-30T19:30:17.453Z,99.90
2018-09-30T19:32:45.562Z,99.90
2018-09-30T19:35:13.769Z,99.90
2018-09-30T19:37:41.945Z,99.90
2018-09-30T19:40:10.104Z,99.90
2018-09-30T19:42:38.257Z,99.90
2018-09-30T19:45:06.425Z,99.90
2018-09-30T19:47:34.594Z,99.90
2018-09-30T19:50:02.750Z,99.90
2018-09-30T19:52:30.900Z,99.90
2018-09-30T19:54:59.089Z,99.90
2018-09-30T19:57:27.248Z,99.90
2018-09-30T19:59:55.424Z,99.90
2018-09-30T20:02:23.577Z,99.90
2018-09-30T20:04:51.753Z,99.90
2018-09-30T20:07:19.925Z,99.90
2018-09-30T20:09:48.111Z,99.90
2018-09-30T20:12:16.261Z,99.90
2018-09-30T20:14:44.434Z,99.90
2018-09-30T20:17:12.593Z,99.90
2018-09-30T20:19:40.745Z,99.90
2018-09-30T20:22:10.465Z,99.90
2018-09-30T20:24:38.656Z,99.90
2018-09-30T20:27:06.825Z,99.90
2018-09-30T20:29:35.867Z,99.90
2018-09-30T20:32:04.076Z,99.90
2018-09-30T20:34:32.304Z,99.90
2018-09-30T20:37:00.506Z,99.90
2018-09-30T20:39:28.640Z,99.90
2018-09-30T20:41:56.836Z,99.90
2018-09-30T20:44:25.010Z,99.90
2018-09-30T20:46:53.174Z,99.90
2018-09-30T20:49:21.336Z,99.90
2018-09-30T20:51:49.507Z,99.90
2018-09-30T20:54:17.715Z,99.90
2018-09-30T20:56:46.296Z,99.90
2018-09-30T20:59:14.463Z,99.90
2018-09-30T21:01:49.321Z,99.90
2018-09-30T21:04:17.508Z,99.90
2018-09-30T21:06:45.909Z,99.90
2018-09-30T21:09:15.846Z,99.90
2018-09-30T21:11:43.990Z,99.90
2018-09-30T21:14:12.186Z,99.90
2018-09-30T21:16:40.357Z,99.90
2018-09-30T21:19:08.850Z,99.90
2018-09-30T21:21:37.036Z,99.90
2018-09-30T21:24:05.196Z,99.90
2018-09-30T21:26:33.383Z,99.90
2018-09-30T21:29:01.545Z,99.90
2018-09-30T21:31:29.704Z,99.90
2018-09-30T21:33:57.868Z,99.90
2018-09-30T21:36:26.046Z,99.90
2018-09-30T21:38:54.223Z,99.90
2018-09-30T21:41:22.419Z,99.90
2018-09-30T21:43:50.590Z,99.90
2018-09-30T21:46:18.745Z,99.90
2018-09-30T21:48:46.953Z,99.90
2018-09-30T21:51:15.060Z,99.90
2018-09-30T21:53:43.200Z,99.90
2018-09-30T21:56:11.380Z,99.90
2018-09-30T21:58:39.536Z,99.90
